Time;durP1;ratioP1;P1;durP2;ratioP2;P2;SDS_P1;SDS_P2;PMS_P1;PMS_P2;Temp;Humidity;BMP_temperature;BMP_pressure;BME280_temperature;BME280_humidity;BME280_pressure;Samples;Min_cycle;Max_cycle;Signal;HPM_P1;HPM_P2
2023/12/01 00:01:57;;;;;;;;;;;;;;;;;;10292660;28;19922;-86
2023/12/01 00:06:57;;;;;;;;;;;;;;;;;;10301168;28;19949;-85
2023/12/01 00:11:59;;;;;;;;;;;;;;;;;;10266441;28;19930;-86
2023/12/01 00:16:59;;;;;;;;;;;;;;;;;;10320332;28;19949;-87
2023/12/01 00:21:59;;;;;;;;;;;;;;;;;;10341027;28;19933;-87
2023/12/01 00:27:01;;;;;;;;;;;;;;;;;;10325564;28;19977;-87
2023/12/01 00:32:07;;;;;;;;;;;;;;;;;;10316468;28;19950;-84
2023/12/01 00:37:22;;;;;;;;;;;;;;;;;;10306972;28;19946;-86
2023/12/01 00:42:22;;;;;;;;;;;;;;;;;;10297409;28;19923;-85
2023/12/01 00:47:22;;;;;;;;;;;;;;;;;;10309575;28;20000;-85
2023/12/01 00:52:24;;;;;;;;;;;;;;;;;;10308019;28;19915;-86
2023/12/01 00:57:24;;;;;;;;;;;;;;;;;;10301716;28;20095;-87
2023/12/01 01:02:25;;;;;;;;;;;;;;;;;;10296384;28;19906;-86
2023/12/01 01:07:25;;;;;;;;;;;;;;;;;;10306877;28;25883;-85
2023/12/01 01:12:25;;;;;;;;;;;;;;;;;;10307322;28;20026;-85
2023/12/01 01:17:27;;;;;;;;;;;;;;;;;;10288661;28;19934;-85
2023/12/01 01:22:27;;;;;;;;;;;;;;;;;;10261336;28;20009;-84
2023/12/01 01:27:28;;;;;;;;;;;;;;;;;;10268159;28;20034;-85
2023/12/01 01:32:28;;;;;;;;;;;;;;;;;;10267155;28;20048;-84
2023/12/01 01:37:28;;;;;;;;;;;;;;;;;;10242323;28;19951;-83
2023/12/01 01:42:30;;;;;;;;;;;;;;;;;;10259786;28;19926;-84
2023/12/01 01:47:31;;;;;;;;;;;;;;;;;;10203027;28;19934;-83
2023/12/01 01:52:32;;;;;;;;;;;;;;;;;;10236432;28;19935;-84
2023/12/01 01:57:33;;;;;;;;;;;;;;;;;;10228898;28;19926;-87
2023/12/01 02:02:35;;;;;;;;;;;;;;;;;;10252756;28;19942;-86
2023/12/01 02:07:35;;;;;;;;;;;;;;;;;;10220595;28;19926;-86
2023/12/01 02:12:35;;;;;;;;;;;;;;;;;;10242215;28;19931;-85
2023/12/01 02:17:38;;;;;;;;;;;;;;;;;;10257671;28;19933;-85
2023/12/01 02:22:43;;;;;;;;;;;;;;;;;;10269324;28;19926;-85
2023/12/01 02:33:07;;;;;;;;;;;;;;;;;;10285449;23;20016;-84
2023/12/01 02:38:08;;;;;;;;;;;;;;;;;;10323690;28;19930;-85
2023/12/01 02:43:08;;;;;;;;;;;;;;;;;;10338636;28;20054;-83
2023/12/01 02:48:08;;;;;;;;;;;;;;;;;;10326909;28;19945;-83
2023/12/01 02:53:09;;;;;;;;;;;;;;;;;;10326017;28;19912;-81
2023/12/01 02:58:09;;;;;;;;;;;;;;;;;;10348531;28;19906;-83
2023/12/01 03:03:10;;;;;;;;;;;;;;;;;;10319131;28;20101;-82
2023/12/01 03:08:10;;;;;;;;;;;;;;;;;;10316779;28;19949;-83
2023/12/01 03:13:10;;;;;;;;;;;;;;;;;;10301606;28;19992;-83
2023/12/01 03:18:11;;;;;;;;;;;;;;;;;;10315956;28;19928;-84
2023/12/01 03:23:11;;;;;;;;;;;;;;;;;;10332957;28;19930;-84
2023/12/01 03:28:14;;;;;;;;;;;;;;;;;;10344063;28;19956;-86
2023/12/01 03:33:15;;;;;;;;;;;;;;;;;;10338083;28;19925;-84
2023/12/01 03:38:15;;;;;;;;;;;;;;;;;;10322260;28;19929;-84
2023/12/01 03:43:15;;;;;;;;;;;;;;;;;;10311160;28;20020;-81
2023/12/01 03:48:17;;;;;;;;;;;;;;;;;;10302521;28;20085;-84
2023/12/01 03:53:18;;;;;;;;;;;;;;;;;;10293199;28;19983;-82
2023/12/01 03:58:24;;;;;;;;;;;;;;;;;;10307327;28;20264;-82
2023/12/01 04:03:26;;;;;;;;;;;;;;;;;;10303967;28;19925;-79
2023/12/01 04:08:27;;;;;;;;;;;;;;;;;;10288020;28;20310;-81
2023/12/01 04:13:27;;;;;;;;;;;;;;;;;;10312087;28;19933;-85
2023/12/01 04:18:28;;;;;;;;;;;;;;;;;;10352691;28;19933;-85
2023/12/01 04:23:30;;;;;;;;;;;;;;;;;;10367840;28;20028;-85
2023/12/01 04:28:30;;;;;;;;;;;;;;;;;;10329087;28;19934;-84
2023/12/01 04:33:32;;;;;;;;;;;;;;;;;;10342898;28;19930;-85
2023/12/01 04:38:35;;;;;;;;;;;;;;;;;;10371512;28;19926;-86
2023/12/01 04:43:35;;;;;;;;;;;;;;;;;;10311705;28;19921;-86
2023/12/01 04:48:36;;;;;;;;;;;;;;;;;;10272915;28;19933;-85
2023/12/01 04:53:38;;;;;;;;;;;;;;;;;;10313313;28;19926;-86
2023/12/01 04:58:38;;;;;;;;;;;;;;;;;;10318727;28;20279;-87
2023/12/01 05:03:38;;;;;;;;;;;;;;;;;;10307705;28;20017;-87
2023/12/01 05:08:43;;;;;;;;;;;;;;;;;;10311568;28;19954;-87
2023/12/01 05:13:43;;;;;;;;;;;;;;;;;;10298574;28;19933;-86
2023/12/01 05:18:44;;;;;;;;;;;;;;;;;;10299842;28;19924;-83
2023/12/01 05:23:45;;;;;;;;;;;;;;;;;;10329263;28;19922;-84
2023/12/01 05:28:47;;;;;;;;;;;;;;;;;;10341195;28;19929;-84
2023/12/01 05:33:47;;;;;;;;;;;;;;;;;;10340741;28;19938;-83
2023/12/01 05:38:47;;;;;;;;;;;;;;;;;;10326711;28;19922;-84
2023/12/01 05:43:49;;;;;;;;;;;;;;;;;;10337370;28;19921;-84
2023/12/01 05:48:49;;;;;;;;;;;;;;;;;;10300219;28;19941;-85
2023/12/01 05:53:50;;;;;;;;;;;;;;;;;;10416317;23;20019;-86
2023/12/01 05:58:52;;;;;;;;;;;;;;;;;;10579184;23;19939;-86
2023/12/01 06:03:53;;;;;;;;;;;;;;;;;;10344240;28;19982;-86
2023/12/01 06:08:53;;;;;;;;;;;;;;;;;;10384112;28;19924;-85
2023/12/01 06:13:54;;;;;;;;;;;;;;;;;;10380010;28;19924;-85
2023/12/01 06:19:04;;;;;;;;;;;;;;;;;;10335917;28;19922;-85
2023/12/01 06:24:05;;;;;;;;;;;;;;;;;;10343235;28;19929;-84
2023/12/01 06:29:07;;;;;;;;;;;;;;;;;;10318535;28;19961;-84
2023/12/01 06:34:08;;;;;;;;;;;;;;;;;;10354581;28;19968;-84
2023/12/01 06:39:10;;;;;;;;;;;;;;;;;;10296951;28;19929;-85
2023/12/01 06:44:10;;;;;;;;;;;;;;;;;;10341112;28;19905;-81
2023/12/01 06:49:10;;;;;;;;;;;;;;;;;;10380039;28;20144;-82
2023/12/01 06:54:10;;;;;;;;;;;;;;;;;;10360706;28;19937;-83
2023/12/01 06:59:11;;;;;;;;;;;;;;;;;;10335460;28;19959;-82
2023/12/01 07:04:13;;;;;;;;;;;;;;;;;;10395777;28;19925;-84
2023/12/01 07:09:17;;;;;;;;;;;;;;;;;;10326772;28;20002;-85
2023/12/01 07:14:18;;;;;;;;;;;;;;;;;;10362448;28;19926;-85
2023/12/01 07:19:19;;;;;;;;;;;;;;;;;;10368288;28;19921;-84
2023/12/01 07:29:43;;;;;;;;;;;;;;;;;;10657591;23;20008;-84
2023/12/01 07:34:43;;;;;;;;;;;;;;;;;;10656065;23;20020;-84
2023/12/01 07:39:51;;;;;;;;;;;;;;;;;;10298006;28;19918;-84
2023/12/01 07:45:18;;;;;;;;;;;;;;;;;;10307355;28;20016;-84
2023/12/01 07:50:20;;;;;;;;;;;;;;;;;;10299888;28;19949;-84
2023/12/01 07:55:20;;;;;;;;;;;;;;;;;;10281715;28;19952;-84
2023/12/01 08:00:21;;;;;;;;;;;;;;;;;;10285252;28;19993;-83
2023/12/01 08:05:22;;;;;;;;;;;;;;;;;;10321235;28;19914;-83
2023/12/01 08:10:23;;;;;;;;;;;;;;;;;;10313165;28;19930;-85
2023/12/01 08:15:26;;;;;;;;;;;;;;;;;;10318747;28;19928;-84
2023/12/01 08:20:29;;;;;;;;;;;;;;;;;;10265664;28;21838;-83
2023/12/01 08:25:31;;;;;;;;;;;;;;;;;;10293714;28;19926;-83
2023/12/01 08:30:33;;;;;;;;;;;;;;;;;;10295199;28;19936;-84
2023/12/01 08:35:33;;;;;;;;;;;;;;;;;;10259430;28;20381;-83
2023/12/01 08:40:34;;;;;;;;;;;;;;;;;;10281354;28;19926;-84
2023/12/01 08:45:36;;;;;;;;;;;;;;;;;;10240566;28;19922;-83
2023/12/01 08:50:36;;;;;;;;;;;;;;;;;;10254812;28;19937;-84
2023/12/01 08:55:37;;;;;;;;;;;;;;;;;;10236259;28;19922;-83
2023/12/01 09:00:38;;;;;;;;;;;;;;;;;;10224244;28;19919;-82
2023/12/01 09:05:40;;;;;;;;;;;;;;;;;;10234639;28;19922;-83
2023/12/01 09:10:41;;;;;;;;;;;;;;;;;;10270830;28;19930;-83
2023/12/01 09:15:42;;;;;;;;;;;;;;;;;;10267407;28;19930;-83
2023/12/01 09:20:44;;;;;;;;;;;;;;;;;;10275089;28;19923;-83
2023/12/01 09:25:47;;;;;;;;;;;;;;;;;;10266248;28;19930;-84
2023/12/01 09:30:50;;;;;;;;;;;;;;;;;;10266895;28;19937;-82
2023/12/01 09:35:50;;;;;;;;;;;;;;;;;;10296554;28;20288;-85
2023/12/01 09:40:56;;;;;;;;;;;;;;;;;;10290283;28;19906;-85
2023/12/01 09:45:57;;;;;;;;;;;;;;;;;;10269500;28;19926;-87
2023/12/01 09:51:04;;;;;;;;;;;;;;;;;;10314790;28;19968;-85
2023/12/01 09:56:05;;;;;;;;;;;;;;;;;;10301388;28;20317;-86
2023/12/01 10:01:05;;;;;;;;;;;;;;;;;;10251359;28;19922;-85
2023/12/01 10:06:08;;;;;;;;;;;;;;;;;;10313085;28;19933;-86
2023/12/01 10:11:11;;;;;;;;;;;;;;;;;;10287674;28;19929;-87
2023/12/01 10:16:14;;;;;;;;;;;;;;;;;;10270368;28;19923;-86
2023/12/01 10:21:17;;;;;;;;;;;;;;;;;;10266837;28;19949;-85
2023/12/01 10:26:18;;;;;;;;;;;;;;;;;;10243299;28;20410;-85
2023/12/01 10:31:18;;;;;;;;;;;;;;;;;;10266436;28;20466;-85
2023/12/01 10:36:20;;;;;;;;;;;;;;;;;;10247270;28;19958;-85
2023/12/01 10:41:20;;;;;;;;;;;;;;;;;;10255702;28;19954;-85
2023/12/01 10:46:21;;;;;;;;;;;;;;;;;;10266433;28;20045;-86
2023/12/01 10:51:22;;;;;;;;;;;;;;;;;;10288518;28;19925;-87
2023/12/01 10:56:23;;;;;;;;;;;;;;;;;;10288449;28;19926;-86
2023/12/01 11:01:25;;;;;;;;;;;;;;;;;;10273797;28;19966;-84
2023/12/01 11:06:28;;;;;;;;;;;;;;;;;;10256962;28;21816;-83
2023/12/01 11:11:28;;;;;;;;;;;;;;;;;;10251557;28;20020;-87
2023/12/01 11:16:28;;;;;;;;;;;;;;;;;;10302310;28;19956;-86
2023/12/01 11:21:29;;;;;;;;;;;;;;;;;;10273930;28;20645;-85
2023/12/01 11:26:29;;;;;;;;;;;;;;;;;;10281851;28;19985;-86
2023/12/01 11:31:41;;;;;;;;;;;;;;;;;;10311469;28;19914;-83
2023/12/01 11:36:43;;;;;;;;;;;;;;;;;;10322410;28;19962;-82
2023/12/01 11:41:49;;;;;;;;;;;;;;;;;;10290307;28;20397;-82
2023/12/01 11:47:00;;;;;;;;;;;;;;;;;;10292064;28;19921;-82
2023/12/01 11:52:01;;;;;;;;;;;;;;;;;;10278191;28;19937;-82
2023/12/01 11:57:02;;;;;;;;;;;;;;;;;;10298652;28;19925;-82
2023/12/01 12:02:03;;;;;;;;;;;;;;;;;;10281474;28;19922;-81
2023/12/01 12:07:04;;;;;;;;;;;;;;;;;;10293086;28;19972;-81
2023/12/01 12:12:09;;;;;;;;;;;;;;;;;;10274296;28;19930;-82
2023/12/01 12:17:09;;;;;;;;;;;;;;;;;;10291609;28;20383;-80
2023/12/01 12:22:09;;;;;;;;;;;;;;;;;;10263975;28;19929;-81
2023/12/01 12:27:10;;;;;;;;;;;;;;;;;;10263557;28;19922;-83
2023/12/01 12:32:10;;;;;;;;;;;;;;;;;;10288719;28;19969;-82
2023/12/01 12:37:11;;;;;;;;;;;;;;;;;;10244133;28;19922;-81
2023/12/01 12:42:11;;;;;;;;;;;;;;;;;;10283428;28;19972;-81
2023/12/01 12:47:11;;;;;;;;;;;;;;;;;;10258042;28;19926;-81
2023/12/01 12:52:12;;;;;;;;;;;;;;;;;;10312131;28;20068;-84
2023/12/01 12:57:12;;;;;;;;;;;;;;;;;;10289214;28;19922;-83
2023/12/01 13:02:12;;;;;;;;;;;;;;;;;;10297012;28;20397;-84
2023/12/01 13:07:13;;;;;;;;;;;;;;;;;;10310935;28;20044;-83
2023/12/01 13:12:14;;;;;;;;;;;;;;;;;;10280042;28;20797;-84
2023/12/01 13:17:16;;;;;;;;;;;;;;;;;;10287219;28;19996;-83
2023/12/01 13:22:16;;;;;;;;;;;;;;;;;;10301804;28;19936;-84
2023/12/01 13:27:17;;;;;;;;;;;;;;;;;;10305323;28;19934;-82
2023/12/01 13:32:18;;;;;;;;;;;;;;;;;;10287567;28;19951;-83
2023/12/01 13:37:21;;;;;;;;;;;;;;;;;;10301505;28;20274;-85
2023/12/01 13:42:22;;;;;;;;;;;;;;;;;;10252319;28;19922;-82
2023/12/01 13:47:23;;;;;;;;;;;;;;;;;;10298348;28;19960;-84
2023/12/01 13:52:26;;;;;;;;;;;;;;;;;;10320734;28;20571;-82
2023/12/01 13:57:27;;;;;;;;;;;;;;;;;;10288241;28;19922;-82
2023/12/01 14:02:28;;;;;;;;;;;;;;;;;;10305610;28;19925;-82
2023/12/01 14:07:28;;;;;;;;;;;;;;;;;;10327417;28;19933;-83
2023/12/01 14:12:28;;;;;;;;;;;;;;;;;;10299929;28;20358;-80
2023/12/01 14:17:30;;;;;;;;;;;;;;;;;;10323639;28;19926;-81
2023/12/01 14:22:31;;;;;;;;;;;;;;;;;;10315381;28;20419;-83
2023/12/01 14:27:32;;;;;;;;;;;;;;;;;;10323048;28;19976;-82
2023/12/01 14:32:34;;;;;;;;;;;;;;;;;;10311151;28;19921;-81
2023/12/01 14:37:36;;;;;;;;;;;;;;;;;;10363853;28;19933;-81
2023/12/01 14:42:38;;;;;;;;;;;;;;;;;;10323416;28;19933;-82
2023/12/01 14:47:39;;;;;;;;;;;;;;;;;;10338001;28;19918;-80
2023/12/01 14:52:39;;;;;;;;;;;;;;;;;;10312512;28;19960;-81
2023/12/01 14:57:39;;;;;;;;;;;;;;;;;;10297883;28;19922;-81
2023/12/01 15:02:40;;;;;;;;;;;;;;;;;;10343700;28;19945;-81
2023/12/01 15:07:41;;;;;;;;;;;;;;;;;;10323347;28;20425;-81
2023/12/01 15:12:41;;;;;;;;;;;;;;;;;;10329159;28;19948;-81
2023/12/01 15:17:41;;;;;;;;;;;;;;;;;;10321544;28;20260;-80
2023/12/01 15:22:42;;;;;;;;;;;;;;;;;;10312750;28;19933;-82
2023/12/01 15:27:46;;;;;;;;;;;;;;;;;;10313139;28;19921;-80
2023/12/01 15:32:46;;;;;;;;;;;;;;;;;;10332084;28;19930;-81
2023/12/01 15:37:46;;;;;;;;;;;;;;;;;;10303083;28;20008;-80
2023/12/01 15:42:46;;;;;;;;;;;;;;;;;;10296461;28;19922;-81
2023/12/01 15:47:48;;;;;;;;;;;;;;;;;;10320526;28;19990;-81
2023/12/01 15:52:56;;;;;;;;;;;;;;;;;;10289319;28;19960;-80
2023/12/01 15:57:58;;;;;;;;;;;;;;;;;;10293623;28;20425;-81
2023/12/01 16:02:58;;;;;;;;;;;;;;;;;;10294347;28;19917;-81
2023/12/01 16:07:58;;;;;;;;;;;;;;;;;;10322144;28;19918;-81
2023/12/01 16:13:00;;;;;;;;;;;;;;;;;;10319538;28;20019;-82
2023/12/01 16:18:00;;;;;;;;;;;;;;;;;;10319586;28;19989;-82
2023/12/01 16:23:02;;;;;;;;;;;;;;;;;;10329969;28;19944;-83
2023/12/01 16:28:08;;;;;;;;;;;;;;;;;;10304851;28;19922;-81
2023/12/01 16:33:08;;;;;;;;;;;;;;;;;;10299277;28;19929;-80
2023/12/01 16:38:09;;;;;;;;;;;;;;;;;;10290861;28;19922;-82
2023/12/01 16:43:09;;;;;;;;;;;;;;;;;;10312877;28;19922;-81
2023/12/01 16:48:09;;;;;;;;;;;;;;;;;;10307412;28;19918;-81
2023/12/01 16:53:11;;;;;;;;;;;;;;;;;;10353952;28;20408;-81
2023/12/01 16:58:12;;;;;;;;;;;;;;;;;;10317784;28;20036;-82
2023/12/01 17:03:12;;;;;;;;;;;;;;;;;;10292274;28;19932;-81
2023/12/01 17:08:13;;;;;;;;;;;;;;;;;;10291826;28;20180;-81
2023/12/01 17:13:13;;;;;;;;;;;;;;;;;;10280021;28;20239;-82
2023/12/01 17:18:13;;;;;;;;;;;;;;;;;;10278336;28;20015;-82
2023/12/01 17:23:16;;;;;;;;;;;;;;;;;;10274736;28;19926;-81
2023/12/01 17:28:17;;;;;;;;;;;;;;;;;;10256769;28;20332;-82
2023/12/01 17:33:18;;;;;;;;;;;;;;;;;;10286306;28;19930;-82
2023/12/01 17:38:21;;;;;;;;;;;;;;;;;;10270254;28;19922;-81
2023/12/01 17:43:24;;;;;;;;;;;;;;;;;;10259480;28;19922;-82
2023/12/01 17:48:24;;;;;;;;;;;;;;;;;;10271292;28;20414;-81
2023/12/01 17:53:24;;;;;;;;;;;;;;;;;;10275566;28;19930;-81
2023/12/01 17:58:25;;;;;;;;;;;;;;;;;;10264166;28;20019;-81
2023/12/01 18:03:25;;;;;;;;;;;;;;;;;;10299608;28;20109;-82
2023/12/01 18:08:27;;;;;;;;;;;;;;;;;;10294956;28;19929;-80
2023/12/01 18:13:29;;;;;;;;;;;;;;;;;;10311572;28;19937;-82
2023/12/01 18:18:31;;;;;;;;;;;;;;;;;;10296703;28;20646;-80
2023/12/01 18:23:33;;;;;;;;;;;;;;;;;;10269812;28;19933;-82
2023/12/01 18:28:33;;;;;;;;;;;;;;;;;;10286083;28;19972;-80
2023/12/01 18:33:34;;;;;;;;;;;;;;;;;;10272687;28;19945;-84
2023/12/01 18:38:34;;;;;;;;;;;;;;;;;;10247695;28;19949;-81
2023/12/01 18:43:35;;;;;;;;;;;;;;;;;;10290206;28;19950;-83
2023/12/01 18:48:36;;;;;;;;;;;;;;;;;;10322005;28;19977;-83
2023/12/01 18:53:38;;;;;;;;;;;;;;;;;;10300868;28;20519;-85
2023/12/01 18:58:38;;;;;;;;;;;;;;;;;;10284766;28;19922;-83
2023/12/01 19:03:39;;;;;;;;;;;;;;;;;;10269383;28;19921;-81
2023/12/01 19:08:39;;;;;;;;;;;;;;;;;;10297683;28;19925;-79
2023/12/01 19:13:40;;;;;;;;;;;;;;;;;;10307555;28;20020;-80
2023/12/01 19:18:40;;;;;;;;;;;;;;;;;;10297777;28;20373;-85
2023/12/01 19:23:41;;;;;;;;;;;;;;;;;;10319928;28;19918;-81
2023/12/01 19:28:43;;;;;;;;;;;;;;;;;;10358301;28;19925;-80
2023/12/01 19:33:46;;;;;;;;;;;;;;;;;;10363002;28;19934;-79
2023/12/01 19:38:46;;;;;;;;;;;;;;;;;;10306265;28;19976;-80
2023/12/01 19:43:48;;;;;;;;;;;;;;;;;;10299214;28;19964;-79
2023/12/01 19:48:50;;;;;;;;;;;;;;;;;;10294068;28;19922;-81
2023/12/01 19:53:50;;;;;;;;;;;;;;;;;;10261932;28;19963;-83
2023/12/01 19:58:51;;;;;;;;;;;;;;;;;;10259506;28;19976;-83
2023/12/01 20:03:52;;;;;;;;;;;;;;;;;;10221281;28;19969;-83
2023/12/01 20:08:54;;;;;;;;;;;;;;;;;;10279694;28;20000;-85
2023/12/01 20:13:55;;;;;;;;;;;;;;;;;;10284118;28;19994;-81
2023/12/01 20:18:59;;;;;;;;;;;;;;;;;;10267634;28;19922;-82
2023/12/01 20:23:59;;;;;;;;;;;;;;;;;;10281086;28;19950;-77
2023/12/01 20:28:59;;;;;;;;;;;;;;;;;;10255632;28;19928;-81
2023/12/01 20:33:59;;;;;;;;;;;;;;;;;;10259580;28;19926;-79
2023/12/01 20:39:00;;;;;;;;;;;;;;;;;;10278407;28;20760;-77
2023/12/01 20:44:01;;;;;;;;;;;;;;;;;;10295131;28;19922;-81
2023/12/01 20:49:03;;;;;;;;;;;;;;;;;;10291397;28;20021;-81
2023/12/01 20:54:04;;;;;;;;;;;;;;;;;;10278024;28;19926;-82
2023/12/01 20:59:06;;;;;;;;;;;;;;;;;;10270615;28;19929;-83
2023/12/01 21:04:06;;;;;;;;;;;;;;;;;;10288380;28;19922;-84
2023/12/01 21:09:09;;;;;;;;;;;;;;;;;;10298240;28;19925;-82
2023/12/01 21:14:10;;;;;;;;;;;;;;;;;;10291033;28;19922;-83
2023/12/01 21:19:10;;;;;;;;;;;;;;;;;;10301835;28;19929;-83
2023/12/01 21:24:12;;;;;;;;;;;;;;;;;;10309865;28;19945;-85
2023/12/01 21:29:13;;;;;;;;;;;;;;;;;;10267790;28;19930;-83
2023/12/01 21:34:17;;;;;;;;;;;;;;;;;;10290331;28;19932;-83
2023/12/01 21:39:18;;;;;;;;;;;;;;;;;;10281420;28;19922;-83
2023/12/01 21:44:18;;;;;;;;;;;;;;;;;;10281837;28;19926;-80
2023/12/01 21:49:19;;;;;;;;;;;;;;;;;;10259704;28;19933;-84
2023/12/01 21:54:19;;;;;;;;;;;;;;;;;;10268161;28;19929;-80
2023/12/01 21:59:22;;;;;;;;;;;;;;;;;;10272626;28;19925;-83
2023/12/01 22:04:44;;;;;;;;;;;;;;;;;;10244130;28;19922;-88
2023/12/01 22:09:57;;;;;;;;;;;;;;;;;;10251090;28;19941;-88
2023/12/01 22:14:59;;;;;;;;;;;;;;;;;;10285416;28;20012;-82
2023/12/01 22:20:00;;;;;;;;;;;;;;;;;;10275293;28;20017;-83
2023/12/01 22:25:12;;;;;;;;;;;;;;;;;;10231125;28;19922;-81
2023/12/01 22:30:15;;;;;;;;;;;;;;;;;;10308547;28;20882;-82
2023/12/01 22:35:19;;;;;;;;;;;;;;;;;;10331298;28;19914;-83
2023/12/01 22:40:24;;;;;;;;;;;;;;;;;;10303477;28;19964;-81
2023/12/01 22:45:25;;;;;;;;;;;;;;;;;;10303000;28;19953;-78
2023/12/01 22:50:29;;;;;;;;;;;;;;;;;;10291121;28;20131;-86
2023/12/01 22:55:31;;;;;;;;;;;;;;;;;;10285007;28;20026;-83
2023/12/01 23:00:42;;;;;;;;;;;;;;;;;;10280408;28;19922;-85
2023/12/01 23:05:52;;;;;;;;;;;;;;;;;;10313168;28;19933;-81
2023/12/01 23:10:54;;;;;;;;;;;;;;;;;;10286813;28;19954;-80
2023/12/01 23:15:55;;;;;;;;;;;;;;;;;;10252921;28;20056;-86
2023/12/01 23:20:56;;;;;;;;;;;;;;;;;;10295351;28;20579;-83
2023/12/01 23:26:05;;;;;;;;;;;;;;;;;;10303715;28;19922;-82
2023/12/01 23:31:08;;;;;;;;;;;;;;;;;;10278724;28;20021;-84
2023/12/01 23:36:22;;;;;;;;;;;;;;;;;;10209625;28;20021;-81
2023/12/01 23:41:33;;;;;;;;;;;;;;;;;;10286417;28;20013;-82
2023/12/01 23:47:06;;;;;;;;;;;;;;;;;;10296540;28;19922;-83
2023/12/01 23:52:06;;;;;;;;;;;;;;;;;;10299243;28;19929;-82
2023/12/01 23:57:13;;;;;;;;;;;;;;;;;;10290360;28;20019;-82
